Ana Sayfa
METAR-TAF:

METAR-TAF

Havaalanları :

Charlotte, Michigan, Amerika Birleşik Devletleri

Enlem: 42-34-28N, Boylam: 084-48-41W, yükseklik: 271 m

Güncel hava durumu gözlemi

Rapor saat 23:16 UTC de 12 dakika önce yapıldı.
Rüzgar güney/güneybatıdan 8 kt
Sıcaklık 8°C
Nem 76%
Basınç 1011 hPa
Görüş mesafesi: 16.1 km
7500 ft yükseklikte çok bulutlu

METAR: KFPK 082316Z AUTO 20008KT 10SM OVC075 08/04 A2984 RMK AO2 T00750040

Saat: 18:28 (23:28 UTC)


TAF: eksik

4.000'den fazla havaalanı için hava durumu gözlemleri ve tahminleri (METAR ve TAF raporları).

Kullanılabilir istasyonlar harita üzerinde sarı ve kırmızı noktalarla gösterilir.

İstasyonun adını görmek için fareyi noktanın üzerinde gezdirin.

Sonrasında hava gözlem ve tahminlerini görmek için tıklayın.

Haritayı değiştirmek için: yaklaştırmak için siyah artı işaretli yeşil düğmeye ve uzaklaştırmak için de eksi işaretli düğmeye hızla tıklayın; bitişik haritalar için yeşil okları kullanın.


METAR-TAF: